createdAt,value
2022-11-13T00:00:20.415Z,101279.19
2022-11-13T00:02:50.646Z,101279.59
2022-11-13T00:05:21.115Z,101277.94
2022-11-13T00:07:51.404Z,101277.13
2022-11-13T00:10:21.419Z,101283.94
2022-11-13T00:12:54.486Z,101275.84
2022-11-13T00:15:25.126Z,101269.38
2022-11-13T00:17:55.041Z,101279.41
2022-11-13T00:20:25.064Z,101287.09
2022-11-13T00:22:55.072Z,101288.28
2022-11-13T00:25:25.617Z,101282.16
2022-11-13T00:27:58.040Z,101285.38
2022-11-13T00:30:28.546Z,101288.56
2022-11-13T00:32:59.004Z,101284.47
2022-11-13T00:35:28.998Z,101276.38
2022-11-13T00:37:59.456Z,101281.19
2022-11-13T00:40:29.802Z,101275.94
2022-11-13T00:43:02.051Z,101278.75
2022-11-13T00:45:32.419Z,101269.47
2022-11-13T00:48:03.193Z,101268.63
2022-11-13T00:50:33.535Z,101270.66
2022-11-13T00:53:04.053Z,101264.56
2022-11-13T00:55:35.172Z,101265.75
2022-11-13T00:58:07.739Z,101249.97
2022-11-13T01:00:37.720Z,101251.16
2022-11-13T01:03:08.562Z,101256.81
2022-11-13T01:05:40.152Z,101250.38
2022-11-13T01:08:10.935Z,101246.72
2022-11-13T01:10:51.926Z,101248.72
2022-11-13T01:13:26.033Z,101242.59
2022-11-13T01:15:56.573Z,101244.63
2022-11-13T01:18:26.651Z,101243.78
2022-11-13T01:21:07.464Z,101242.97
2022-11-13T01:23:38.269Z,101244.16
2022-11-13T01:26:12.032Z,101245.81
2022-11-13T01:28:45.923Z,101248.19
2022-11-13T01:31:19.246Z,101253.81
2022-11-13T01:33:51.027Z,101249.34
2022-11-13T01:36:24.849Z,101246.53
2022-11-13T01:38:55.044Z,101252.19
2022-11-13T01:41:29.893Z,101247.34
2022-11-13T01:44:03.607Z,101245.72
2022-11-13T01:46:37.070Z,101242.91
2022-11-13T01:49:28.025Z,101234.78
2022-11-13T01:52:02.251Z,101233.16
2022-11-13T01:54:37.897Z,101242.44
2022-11-13T01:57:09.454Z,101238.78
2022-11-13T01:59:47.975Z,101238.00
2022-11-13T02:02:18.969Z,101240.81
2022-11-13T02:04:50.306Z,101239.63
2022-11-13T02:07:24.486Z,101239.63
2022-11-13T02:09:58.930Z,101235.97
2022-11-13T02:12:37.711Z,101234.34
2022-11-13T02:15:11.962Z,101229.88
2022-11-13T02:17:49.963Z,101232.34
2022-11-13T02:20:28.812Z,101231.50
2022-11-13T02:23:11.584Z,101229.53
2022-11-13T02:25:45.868Z,101230.31
2022-11-13T02:28:15.858Z,101238.78
2022-11-13T02:30:46.343Z,101233.16
2022-11-13T02:33:29.750Z,101238.78
2022-11-13T02:36:01.013Z,101239.63
2022-11-13T02:38:32.150Z,101246.91
2022-11-13T02:41:04.983Z,101245.28
2022-11-13T02:43:35.648Z,101247.25
2022-11-13T02:46:06.018Z,101244.44
2022-11-13T02:48:36.459Z,101250.09
2022-11-13T02:51:08.164Z,101246.47
2022-11-13T02:53:38.557Z,101247.25
2022-11-13T02:56:13.979Z,101244.44
2022-11-13T02:58:44.410Z,101245.63
2022-11-13T03:01:14.502Z,101240.81
2022-11-13T03:04:00.258Z,101249.28
2022-11-13T03:06:30.259Z,101250.47
2022-11-13T03:09:01.080Z,101244.81
2022-11-13T03:11:33.113Z,101239.97
2022-11-13T03:14:03.586Z,101247.66
2022-11-13T03:16:34.160Z,101246.81
2022-11-13T03:19:05.274Z,101247.19
2022-11-13T03:21:35.824Z,101244.38
2022-11-13T03:24:06.051Z,101251.19
2022-11-13T03:26:38.387Z,101247.56
2022-11-13T03:29:08.734Z,101250.75
2022-11-13T03:31:38.694Z,101251.59
2022-11-13T03:34:09.226Z,101252.78
2022-11-13T03:36:39.186Z,101260.06
2022-11-13T03:39:14.185Z,101257.22
2022-11-13T03:41:46.754Z,101251.59
2022-11-13T03:44:19.123Z,101257.22
2022-11-13T03:46:49.550Z,101256.41
2022-11-13T03:49:19.978Z,101270.91
2022-11-13T03:51:50.203Z,101253.16
2022-11-13T03:54:20.833Z,101269.25
2022-11-13T03:56:53.531Z,101269.97
2022-11-13T03:59:23.601Z,101264.34
2022-11-13T04:01:54.078Z,101264.34
2022-11-13T04:04:24.717Z,101268.81
2022-11-13T04:06:55.519Z,101263.53
2022-11-13T04:09:25.942Z,101266.34
2022-11-13T04:11:58.322Z,101272.00
2022-11-13T04:14:28.602Z,101269.19
2022-11-13T04:16:58.819Z,101269.19
2022-11-13T04:19:28.968Z,101266.75
2022-11-13T04:21:59.086Z,101280.03
2022-11-13T04:24:29.744Z,101275.56
2022-11-13T04:27:01.279Z,101281.19
2022-11-13T04:29:32.521Z,101276.75
2022-11-13T04:32:02.994Z,101280.41
2022-11-13T04:34:33.312Z,101276.75
2022-11-13T04:37:03.820Z,101279.56
2022-11-13T04:39:34.260Z,101285.22
2022-11-13T04:42:23.315Z,101291.69
2022-11-13T04:44:53.654Z,101287.22
2022-11-13T04:47:24.113Z,101290.50
2022-11-13T04:49:54.120Z,101294.59
2022-11-13T04:52:24.971Z,101289.47
2022-11-13T04:54:55.394Z,101299.66
2022-11-13T04:57:28.023Z,101300.56
2022-11-13T04:59:58.407Z,101301.91
2022-11-13T05:02:29.139Z,101304.19
2022-11-13T05:05:04.577Z,101306.41
2022-11-13T05:07:35.553Z,101305.44
2022-11-13T05:10:06.780Z,101301.66
2022-11-13T05:12:38.891Z,101296.66
2022-11-13T05:15:11.342Z,101313.50
2022-11-13T05:17:41.789Z,101309.66
2022-11-13T05:20:14.081Z,101310.69
2022-11-13T05:22:44.313Z,101315.34
2022-11-13T05:25:15.108Z,101319.63
2022-11-13T05:27:47.622Z,101314.63
2022-11-13T05:30:19.355Z,101315.22
2022-11-13T05:32:49.467Z,101304.53
2022-11-13T05:35:20.094Z,101303.94
2022-11-13T05:37:50.645Z,101312.59
2022-11-13T05:40:21.726Z,101310.72
2022-11-13T05:42:55.824Z,101315.72
2022-11-13T05:45:27.098Z,101312.97
2022-11-13T05:47:57.537Z,101319.56
2022-11-13T05:50:28.101Z,101317.69
2022-11-13T05:52:58.749Z,101320.69
2022-11-13T05:55:28.785Z,101320.53
2022-11-13T05:58:06.930Z,101312.63
2022-11-13T06:00:37.491Z,101323.34
2022-11-13T06:03:07.295Z,101315.88
2022-11-13T06:05:38.665Z,101315.22
2022-11-13T06:08:09.545Z,101318.22
2022-11-13T06:10:39.575Z,101306.22
2022-11-13T06:13:12.644Z,101305.16
2022-11-13T06:15:43.189Z,101310.53
2022-11-13T06:18:13.200Z,101312.28
2022-11-13T06:20:43.351Z,101317.25
2022-11-13T06:23:13.243Z,101315.28
2022-11-13T06:25:43.859Z,101314.13
2022-11-13T06:28:16.749Z,101319.91
2022-11-13T06:30:46.529Z,101313.44
2022-11-13T06:33:17.083Z,101317.53
2022-11-13T06:35:47.459Z,101315.53
2022-11-13T06:38:19.399Z,101315.19
2022-11-13T06:40:49.477Z,101317.22
2022-11-13T06:43:22.469Z,101308.28
2022-11-13T06:45:52.910Z,101310.31
2022-11-13T06:48:23.403Z,101307.09
2022-11-13T06:50:54.436Z,101309.13
2022-11-13T06:53:25.058Z,101309.09
2022-11-13T06:55:56.823Z,101306.66
2022-11-13T06:58:30.071Z,101305.41
2022-11-13T07:01:00.797Z,101303.78
2022-11-13T07:03:31.044Z,101299.69
2022-11-13T07:06:09.354Z,101303.75
2022-11-13T07:08:40.326Z,101298.81
2022-11-13T07:11:13.157Z,101304.94
2022-11-13T07:13:46.145Z,101299.59
2022-11-13T07:16:18.602Z,101300.38
2022-11-13T07:18:53.756Z,101301.16
2022-11-13T07:21:26.003Z,101299.50
2022-11-13T07:23:56.497Z,101302.31
2022-11-13T07:26:27.276Z,101296.16
2022-11-13T07:28:59.809Z,101288.38
2022-11-13T07:31:30.255Z,101288.31
2022-11-13T07:34:01.187Z,101278.09
2022-11-13T07:36:30.810Z,101283.38
2022-11-13T07:39:01.284Z,101276.81
2022-11-13T07:41:31.395Z,101279.22
2022-11-13T07:44:07.954Z,101281.19
2022-11-13T07:46:39.038Z,101275.47
2022-11-13T07:49:09.056Z,101273.44
2022-11-13T07:51:39.425Z,101275.44
2022-11-13T07:54:10.274Z,101272.97
2022-11-13T07:56:40.408Z,101262.75
2022-11-13T07:59:12.001Z,101261.06
2022-11-13T08:01:42.433Z,101261.84
2022-11-13T08:04:13.054Z,101261.00
2022-11-13T08:06:43.084Z,101254.03
2022-11-13T08:09:14.031Z,101251.16
2022-11-13T08:11:44.616Z,101234.78
2022-11-13T08:14:17.357Z,101232.31
2022-11-13T08:16:47.288Z,101235.13
2022-11-13T08:19:17.815Z,101234.69
2022-11-13T08:21:48.206Z,101229.81
2022-11-13T08:24:18.698Z,101226.56
2022-11-13T08:26:49.562Z,101227.00
2022-11-13T08:29:22.170Z,101213.53
2022-11-13T08:31:52.184Z,101218.06
2022-11-13T08:34:22.931Z,101216.88
2022-11-13T08:36:53.429Z,101212.78
2022-11-13T08:39:24.014Z,101203.03
2022-11-13T08:41:54.866Z,101194.06
2022-11-13T08:44:27.550Z,101188.81
2022-11-13T08:46:57.272Z,101194.19
2022-11-13T08:49:28.150Z,101192.59
2022-11-13T08:51:58.187Z,101182.84
2022-11-13T08:54:28.654Z,101181.25
2022-11-13T08:57:04.704Z,101174.78
2022-11-13T08:59:38.056Z,101189.06
2022-11-13T09:02:11.482Z,101181.75
2022-11-13T09:04:42.477Z,101178.53
2022-11-13T09:07:12.946Z,101167.56
2022-11-13T09:09:44.892Z,101169.63
2022-11-13T09:12:16.621Z,101169.66
2022-11-13T09:14:48.334Z,101183.16
2022-11-13T09:17:19.312Z,101170.53
2022-11-13T09:19:49.911Z,101161.22
2022-11-13T09:22:20.477Z,101160.41
2022-11-13T09:24:50.942Z,101151.06
2022-11-13T09:27:21.515Z,101151.09
2022-11-13T09:29:55.731Z,101153.97
2022-11-13T09:32:26.600Z,101155.22
2022-11-13T09:34:56.702Z,101147.91
2022-11-13T09:37:26.861Z,101144.28
2022-11-13T09:39:56.885Z,101134.91
2022-11-13T09:42:45.070Z,101132.88
2022-11-13T09:45:18.818Z,101131.28
2022-11-13T09:47:52.423Z,101121.56
2022-11-13T09:50:28.980Z,101117.94
2022-11-13T09:52:59.824Z,101117.97
2022-11-13T09:55:41.193Z,101120.84
2022-11-13T09:58:23.962Z,101111.47
2022-11-13T10:00:56.372Z,101105.00
2022-11-13T10:06:50.043Z,101105.41
2022-11-13T10:09:36.923Z,101098.91
2022-11-13T10:12:14.228Z,101101.00
2022-11-13T10:14:49.117Z,101096.09
2022-11-13T10:17:28.826Z,101094.91
2022-11-13T10:20:05.568Z,101096.94
2022-11-13T10:22:43.286Z,101090.84
2022-11-13T10:25:20.357Z,101086.41
2022-11-13T10:27:58.487Z,101095.78
2022-11-13T10:30:30.421Z,101085.63
2022-11-13T10:33:11.344Z,101076.69
2022-11-13T10:35:55.898Z,101082.41
2022-11-13T10:38:36.330Z,101079.16
2022-11-13T10:41:16.893Z,101075.91
2022-11-13T10:44:02.138Z,101076.28
2022-11-13T10:46:34.905Z,101080.00
2022-11-13T10:49:22.062Z,101067.41
2022-11-13T10:52:08.430Z,101070.22
2022-11-13T10:54:41.430Z,101066.59
2022-11-13T10:57:36.945Z,101058.06
2022-11-13T11:00:25.225Z,101067.03
2022-11-13T11:02:55.883Z,101057.69
2022-11-13T11:05:31.666Z,101054.44
2022-11-13T11:08:03.383Z,101056.09
2022-11-13T11:10:58.222Z,101054.03
2022-11-13T11:13:30.063Z,101056.09
2022-11-13T11:16:06.954Z,101057.72
2022-11-13T11:18:43.711Z,101056.94
2022-11-13T11:21:23.790Z,101055.69
2022-11-13T11:24:05.269Z,101048.78
2022-11-13T11:26:44.923Z,101049.22
2022-11-13T11:29:27.054Z,101059.75
2022-11-13T11:32:04.626Z,101054.47
2022-11-13T11:34:44.931Z,101037.41
2022-11-13T11:37:21.807Z,101037.00
2022-11-13T11:40:00.047Z,101045.56
2022-11-13T11:42:38.585Z,101034.16
2022-11-13T11:45:30.463Z,101041.88
2022-11-13T11:48:04.653Z,101040.66
2022-11-13T11:50:46.740Z,101040.66
2022-11-13T11:53:32.723Z,101039.47
2022-11-13T11:56:29.062Z,101045.16
2022-11-13T11:59:33.593Z,101046.78
2022-11-13T12:02:46.774Z,101038.25
2022-11-13T12:05:26.670Z,101039.88
2022-11-13T12:08:17.721Z,101035.81
2022-11-13T12:10:59.391Z,101033.34
2022-11-13T12:13:33.897Z,101029.72
2022-11-13T12:16:24.637Z,101035.81
2022-11-13T12:19:04.909Z,101035.84
2022-11-13T12:21:52.711Z,101031.34
2022-11-13T12:24:48.318Z,101032.16
2022-11-13T12:27:33.821Z,101031.75
2022-11-13T12:30:15.969Z,101030.13
2022-11-13T12:33:14.459Z,101020.78
2022-11-13T12:35:49.933Z,101025.28
2022-11-13T12:38:39.779Z,101024.44
2022-11-13T12:41:30.203Z,101031.78
2022-11-13T12:44:42.297Z,101030.94
2022-11-13T12:47:13.952Z,101026.06
2022-11-13T12:49:44.604Z,101031.75
2022-11-13T12:52:24.807Z,101028.50
2022-11-13T12:55:06.961Z,101031.75
2022-11-13T12:57:39.280Z,101033.75
2022-11-13T13:00:29.959Z,101033.75
2022-11-13T13:03:30.127Z,101038.25
2022-11-13T13:06:27.864Z,101034.19
2022-11-13T13:09:28.105Z,101031.72
2022-11-13T13:12:09.792Z,101033.78
2022-11-13T13:15:09.043Z,101034.16
2022-11-13T13:17:41.815Z,101030.09
2022-11-13T13:20:37.366Z,101034.59
2022-11-13T13:23:13.046Z,101035.00
2022-11-13T13:25:44.434Z,101040.69
2022-11-13T13:28:22.509Z,101030.91
2022-11-13T13:31:04.820Z,101040.69
2022-11-13T13:34:05.563Z,101029.69
2022-11-13T13:37:06.264Z,101034.97
2022-11-13T13:40:02.038Z,101036.19
2022-11-13T13:42:58.713Z,101034.97
2022-11-13T13:45:43.603Z,101041.88
2022-11-13T13:48:16.878Z,101041.88
2022-11-13T13:50:53.465Z,101034.56
2022-11-13T13:53:29.616Z,101042.69
2022-11-13T13:56:01.947Z,101045.53
2022-11-13T13:58:37.784Z,101049.19
2022-11-13T14:01:19.655Z,101053.25
2022-11-13T14:03:52.746Z,101051.22
2022-11-13T14:06:26.609Z,101053.25
2022-11-13T14:08:56.897Z,101055.28
2022-11-13T14:11:30.179Z,101056.50
2022-11-13T14:14:11.730Z,101064.63
2022-11-13T14:16:54.055Z,101065.03
2022-11-13T14:19:25.123Z,101053.66
2022-11-13T14:22:06.959Z,101058.94
2022-11-13T14:24:48.846Z,101062.59
2022-11-13T14:27:26.009Z,101063.00
2022-11-13T14:30:00.810Z,101061.78
2022-11-13T14:32:36.234Z,101063.00
2022-11-13T14:35:10.201Z,101052.81
2022-11-13T14:37:48.996Z,101056.88
2022-11-13T14:40:26.159Z,101047.56
2022-11-13T14:43:01.562Z,101050.81
2022-11-13T14:45:34.235Z,101049.19
2022-11-13T14:48:18.998Z,101057.28
2022-11-13T14:50:55.389Z,101051.63
2022-11-13T14:53:35.466Z,101051.19
2022-11-13T14:56:09.674Z,101059.31
2022-11-13T14:58:47.548Z,101062.13
2022-11-13T15:01:21.158Z,101065.75
2022-11-13T15:03:52.961Z,101067.38
2022-11-13T15:06:25.527Z,101060.47
2022-11-13T15:09:01.113Z,101066.09
2022-11-13T15:11:31.853Z,101063.25
2022-11-13T15:14:04.534Z,101068.56
2022-11-13T15:16:36.290Z,101069.78
2022-11-13T15:19:14.031Z,101064.09
2022-11-13T15:22:05.475Z,101070.97
2022-11-13T15:24:39.133Z,101070.16
2022-11-13T15:27:10.285Z,101071.34
2022-11-13T15:29:41.276Z,101070.13
2022-11-13T15:32:14.564Z,101075.81
2022-11-13T15:34:45.063Z,101067.72
2022-11-13T15:37:18.130Z,101068.94
2022-11-13T15:39:50.908Z,101079.88
2022-11-13T15:42:29.998Z,101087.16
2022-11-13T15:45:00.625Z,101091.22
2022-11-13T15:47:35.309Z,101083.91
2022-11-13T15:50:16.055Z,101092.44
2022-11-13T15:52:51.832Z,101090.00
2022-11-13T15:55:32.731Z,101093.22
2022-11-13T15:58:03.620Z,101094.44
2022-11-13T16:00:34.162Z,101095.66
2022-11-13T16:03:11.406Z,101095.25
2022-11-13T16:05:43.158Z,101095.63
2022-11-13T16:08:17.395Z,101095.25
2022-11-13T16:10:49.850Z,101103.34
2022-11-13T16:13:19.632Z,101103.75
2022-11-13T16:15:50.521Z,101100.91
2022-11-13T16:18:29.195Z,101109.78
2022-11-13T16:21:00.230Z,101101.66
2022-11-13T16:23:31.157Z,101106.91
2022-11-13T16:26:05.039Z,101110.59
2022-11-13T16:28:52.754Z,101114.22
2022-11-13T16:31:26.682Z,101116.63
2022-11-13T16:33:57.242Z,101110.16
2022-11-13T16:36:28.765Z,101113.00
2022-11-13T16:38:59.719Z,101111.75
2022-11-13T16:41:34.481Z,101109.72
2022-11-13T16:44:05.487Z,101110.94
2022-11-13T16:46:42.719Z,101110.94
2022-11-13T16:49:19.739Z,101111.34
2022-11-13T16:51:52.023Z,101118.22
2022-11-13T16:54:22.776Z,101117.41
2022-11-13T16:56:55.658Z,101120.25
2022-11-13T16:59:26.226Z,101122.66
2022-11-13T17:01:59.809Z,101121.84
2022-11-13T17:04:29.815Z,101119.44
2022-11-13T17:06:59.565Z,101127.09
2022-11-13T17:09:30.439Z,101127.53
2022-11-13T17:12:02.415Z,101121.84
2022-11-13T17:14:35.104Z,101132.78
2022-11-13T17:17:06.068Z,101122.19
2022-11-13T17:19:41.209Z,101130.72
2022-11-13T17:22:11.813Z,101111.25
2022-11-13T17:24:43.336Z,101120.53
2022-11-13T17:27:15.744Z,101124.59
2022-11-13T17:29:46.248Z,101128.25
2022-11-13T17:32:16.380Z,101133.91
2022-11-13T17:34:47.588Z,101122.94
2022-11-13T17:37:20.572Z,101133.50
2022-11-13T17:39:54.027Z,101125.38
2022-11-13T17:42:25.896Z,101120.09
2022-11-13T17:44:56.268Z,101121.28
2022-11-13T17:47:26.887Z,101122.09
2022-11-13T17:50:02.406Z,101124.09
2022-11-13T17:52:36.470Z,101127.75
2022-11-13T17:55:11.151Z,101123.28
2022-11-13T17:57:43.487Z,101125.69
2022-11-13T18:00:15.398Z,101124.06
2022-11-13T18:02:46.144Z,101125.69
2022-11-13T18:05:16.962Z,101125.22
2022-11-13T18:07:48.098Z,101123.59
2022-11-13T18:10:20.499Z,101129.66
2022-11-13T18:12:53.187Z,101128.41
2022-11-13T18:15:24.079Z,101129.59
2022-11-13T18:17:55.517Z,101117.88
2022-11-13T18:20:25.927Z,101118.25
2022-11-13T18:22:55.853Z,101129.19
2022-11-13T18:25:26.556Z,101123.88
2022-11-13T18:27:59.181Z,101129.56
2022-11-13T18:30:29.434Z,101123.47
2022-11-13T18:32:59.621Z,101128.75
2022-11-13T18:35:30.356Z,101125.47
2022-11-13T18:38:00.842Z,101132.34
2022-11-13T18:40:31.410Z,101128.28
2022-11-13T18:43:05.476Z,101130.28
2022-11-13T18:45:35.885Z,101123.38
2022-11-13T18:48:06.993Z,101124.59
2022-11-13T18:50:37.913Z,101125.78
2022-11-13T18:53:08.492Z,101124.56
2022-11-13T18:55:44.262Z,101124.97
2022-11-13T18:58:17.363Z,101125.34
2022-11-13T19:00:48.673Z,101121.28
2022-11-13T19:03:26.117Z,101123.69
2022-11-13T19:05:56.645Z,101126.91
2022-11-13T19:08:27.597Z,101120.81
2022-11-13T19:10:58.251Z,101129.72
2022-11-13T19:13:30.820Z,101126.06
2022-11-13T19:16:06.769Z,101122.78
2022-11-13T19:18:37.782Z,101126.84
2022-11-13T19:21:09.884Z,101123.59
2022-11-13T19:23:40.821Z,101122.31
2022-11-13T19:26:12.215Z,101124.38
2022-11-13T19:28:45.343Z,101124.75
2022-11-13T19:31:36.462Z,101117.44
2022-11-13T19:34:10.328Z,101125.50
2022-11-13T19:36:42.399Z,101122.25
2022-11-13T19:39:12.768Z,101116.97
2022-11-13T19:41:47.543Z,101118.97
2022-11-13T19:44:20.087Z,101119.38
2022-11-13T19:46:51.935Z,101114.91
2022-11-13T19:49:21.742Z,101115.31
2022-11-13T19:51:53.731Z,101108.00
2022-11-13T19:54:24.804Z,101122.56
2022-11-13T19:56:55.378Z,101114.44
2022-11-13T19:59:27.982Z,101109.19
2022-11-13T20:01:57.676Z,101118.88
2022-11-13T20:04:28.688Z,101117.25
2022-11-13T20:06:59.616Z,101125.31
2022-11-13T20:09:32.124Z,101118.00
2022-11-13T20:12:03.029Z,101124.88
2022-11-13T20:14:38.057Z,101119.63
2022-11-13T20:17:09.291Z,101118.81
2022-11-13T20:19:39.311Z,101123.66
2022-11-13T20:22:09.473Z,101122.84
2022-11-13T20:24:40.270Z,101116.75
2022-11-13T20:27:11.000Z,101119.97
2022-11-13T20:29:43.493Z,101124.00
2022-11-13T20:32:14.237Z,101118.72
2022-11-13T20:34:44.846Z,101119.13
2022-11-13T20:37:15.053Z,101128.41
2022-11-13T20:39:45.777Z,101112.66
2022-11-13T20:42:15.972Z,101114.66
2022-11-13T20:44:47.689Z,101115.03
2022-11-13T20:47:17.444Z,101117.03
2022-11-13T20:49:47.909Z,101104.06
2022-11-13T20:52:17.960Z,101108.94
2022-11-13T20:54:47.624Z,101109.34
2022-11-13T20:57:19.822Z,101106.50
2022-11-13T20:59:52.233Z,101106.88
2022-11-13T21:02:22.041Z,101099.59
2022-11-13T21:04:52.867Z,101097.97
2022-11-13T21:07:23.116Z,101090.69
2022-11-13T21:09:53.875Z,101093.06
2022-11-13T21:12:23.946Z,101088.63
2022-11-13T21:14:56.905Z,101084.94
2022-11-13T21:17:26.576Z,101086.97
2022-11-13T21:19:57.869Z,101082.50
2022-11-13T21:22:28.536Z,101077.25
2022-11-13T21:24:59.256Z,101073.19
2022-11-13T21:27:30.445Z,101069.91
2022-11-13T21:30:03.380Z,101076.31
2022-11-13T21:32:34.022Z,101071.41
2022-11-13T21:35:04.615Z,101074.66
2022-11-13T21:37:36.578Z,101063.72
2022-11-13T21:40:07.791Z,101066.91
2022-11-13T21:42:39.080Z,101056.78
2022-11-13T21:45:13.382Z,101060.84
2022-11-13T21:47:44.397Z,101055.94
2022-11-13T21:50:15.332Z,101057.94
2022-11-13T21:52:45.308Z,101053.47
2022-11-13T21:55:16.610Z,101054.72
2022-11-13T21:57:47.923Z,101053.09
2022-11-13T22:00:21.864Z,101049.41
2022-11-13T22:03:00.096Z,101055.47
2022-11-13T22:05:30.893Z,101060.69
2022-11-13T22:08:04.043Z,101057.44
2022-11-13T22:10:34.785Z,101057.00
2022-11-13T22:13:05.474Z,101061.44
2022-11-13T22:15:37.721Z,101056.56
2022-11-13T22:18:08.454Z,101050.84
2022-11-13T22:20:38.949Z,101050.78
2022-11-13T22:23:09.081Z,101049.16
2022-11-13T22:25:39.674Z,101052.00
2022-11-13T22:28:09.978Z,101047.13
2022-11-13T22:30:42.337Z,101045.50
2022-11-13T22:33:12.433Z,101043.84
2022-11-13T22:35:43.021Z,101051.91
2022-11-13T22:38:13.825Z,101047.09
2022-11-13T22:40:44.303Z,101049.06
2022-11-13T22:43:14.484Z,101045.44
2022-11-13T22:45:46.682Z,101043.41
2022-11-13T22:48:16.664Z,101045.44
2022-11-13T22:50:46.276Z,101049.06
2022-11-13T22:53:16.959Z,101047.09
2022-11-13T22:55:47.055Z,101041.41
2022-11-13T22:58:17.166Z,101054.34
2022-11-13T23:00:49.839Z,101057.16
2022-11-13T23:03:20.604Z,101054.34
2022-11-13T23:05:51.324Z,101057.16
2022-11-13T23:08:22.051Z,101047.88
2022-11-13T23:10:56.133Z,101052.34
2022-11-13T23:13:26.789Z,101045.06
2022-11-13T23:15:59.008Z,101043.03
2022-11-13T23:18:30.058Z,101052.34
2022-11-13T23:21:01.160Z,101043.03
2022-11-13T23:23:32.150Z,101047.09
2022-11-13T23:26:02.935Z,101049.06
2022-11-13T23:28:33.536Z,101044.19
2022-11-13T23:31:06.858Z,101032.47
2022-11-13T23:33:38.556Z,101042.13
2022-11-13T23:36:11.427Z,101039.69
2022-11-13T23:38:42.173Z,101042.91
2022-11-13T23:41:12.979Z,101035.59
2022-11-13T23:46:35.440Z,101031.88
2022-11-13T23:49:06.170Z,101032.66
2022-11-13T23:51:36.627Z,101029.41
2022-11-13T23:54:07.416Z,101034.25
2022-11-13T23:56:37.932Z,101041.09
2022-11-13T23:59:08.827Z,101024.50
